createdAt,value
2022-09-02T00:02:12.513Z,1.43
2022-09-02T00:04:40.686Z,1.60
2022-09-02T00:07:09.051Z,1.67
2022-09-02T00:09:37.707Z,1.60
2022-09-02T00:12:06.855Z,1.53
2022-09-02T00:14:39.505Z,1.43
2022-09-02T00:17:07.561Z,1.50
2022-09-02T00:19:36.156Z,1.40
2022-09-02T00:22:05.165Z,1.40
2022-09-02T00:24:33.469Z,1.50
2022-09-02T00:27:01.609Z,1.63
2022-09-02T00:29:30.127Z,1.33
2022-09-02T00:32:00.412Z,1.60
2022-09-02T00:34:28.712Z,1.50
2022-09-02T00:36:56.907Z,1.70
2022-09-02T00:39:26.189Z,1.30
2022-09-02T00:41:54.343Z,1.40
2022-09-02T00:44:22.795Z,1.60
2022-09-02T00:46:51.025Z,1.57
2022-09-02T00:49:25.476Z,1.40
2022-09-02T00:51:58.645Z,1.40
2022-09-02T00:54:30.505Z,1.60
2022-09-02T00:56:59.874Z,1.30
2022-09-02T00:59:42.176Z,1.50
2022-09-02T01:02:10.449Z,1.50
2022-09-02T01:04:40.560Z,1.50
2022-09-02T01:07:09.594Z,1.40
2022-09-02T01:09:37.964Z,1.50
2022-09-02T01:12:07.123Z,1.80
2022-09-02T01:14:35.551Z,1.57
2022-09-02T01:17:05.284Z,1.70
2022-09-02T01:19:37.774Z,1.67
2022-09-02T01:22:19.685Z,1.70
2022-09-02T01:24:47.713Z,1.87
2022-09-02T01:27:18.378Z,1.77
2022-09-02T01:29:53.972Z,1.60
2022-09-02T01:32:22.512Z,1.93
2022-09-02T01:34:50.740Z,1.93
2022-09-02T01:37:21.416Z,1.57
2022-09-02T01:39:50.708Z,1.50
2022-09-02T01:42:19.498Z,1.80
2022-09-02T01:44:47.792Z,1.83
2022-09-02T01:47:19.309Z,1.67
2022-09-02T01:49:48.220Z,1.70
2022-09-02T01:52:18.053Z,1.80
2022-09-02T01:54:48.650Z,1.50
2022-09-02T01:57:17.286Z,1.83
2022-09-02T01:59:46.270Z,1.60
2022-09-02T02:02:18.255Z,1.60
2022-09-02T02:04:46.748Z,1.60
2022-09-02T02:07:16.350Z,1.50
2022-09-02T02:09:44.958Z,1.80
2022-09-02T02:12:17.537Z,1.60
2022-09-02T02:14:45.987Z,1.50
2022-09-02T02:17:14.167Z,1.90
2022-09-02T02:19:43.783Z,1.77
2022-09-02T02:22:14.088Z,1.60
2022-09-02T02:24:42.127Z,1.60
2022-09-02T02:27:10.109Z,1.60
2022-09-02T02:29:40.105Z,1.80
2022-09-02T02:32:08.606Z,1.90
2022-09-02T02:34:37.272Z,1.50
2022-09-02T02:37:06.032Z,1.60
2022-09-02T02:39:34.294Z,1.60
2022-09-02T02:42:02.740Z,1.70
2022-09-02T02:44:31.582Z,1.47
2022-09-02T02:47:02.395Z,1.57
2022-09-02T02:49:30.591Z,1.63
2022-09-02T02:51:58.863Z,1.50
2022-09-02T02:54:27.473Z,1.47
2022-09-02T02:57:04.284Z,1.60
2022-09-02T02:59:32.762Z,1.37
2022-09-02T03:02:02.240Z,1.50
2022-09-02T03:04:30.439Z,1.47
2022-09-02T03:06:58.682Z,1.60
2022-09-02T03:09:27.543Z,1.90
2022-09-02T03:11:55.990Z,1.50
2022-09-02T03:14:24.771Z,1.80
2022-09-02T03:16:53.593Z,1.37
2022-09-02T03:19:23.172Z,1.97
2022-09-02T03:21:51.818Z,2.00
2022-09-02T03:24:20.009Z,2.13
2022-09-02T03:26:48.332Z,1.87
2022-09-02T03:29:17.116Z,1.40
2022-09-02T03:31:46.174Z,1.70
2022-09-02T03:34:14.693Z,1.70
2022-09-02T03:36:45.190Z,1.77
2022-09-02T03:39:15.805Z,1.50
2022-09-02T03:41:45.595Z,1.40
2022-09-02T03:44:13.879Z,1.90
2022-09-02T03:46:43.342Z,1.73
2022-09-02T03:49:12.604Z,1.70
2022-09-02T03:51:44.002Z,1.40
2022-09-02T03:54:12.546Z,1.53
2022-09-02T03:56:42.087Z,1.70
2022-09-02T03:59:11.110Z,1.80
2022-09-02T04:01:39.865Z,1.50
2022-09-02T04:04:08.654Z,1.60
2022-09-02T04:06:39.085Z,1.80
2022-09-02T04:09:08.568Z,1.60
2022-09-02T04:11:42.678Z,1.90
2022-09-02T04:14:12.395Z,1.87
2022-09-02T04:16:41.115Z,2.07
2022-09-02T04:19:10.511Z,1.93
2022-09-02T04:21:41.852Z,1.80
2022-09-02T04:24:13.592Z,1.93
2022-09-02T04:26:46.116Z,2.00
2022-09-02T04:29:17.194Z,2.23
2022-09-02T04:31:48.808Z,2.10
2022-09-02T04:34:17.175Z,1.70
2022-09-02T04:36:45.785Z,2.20
2022-09-02T04:39:16.332Z,2.10
2022-09-02T04:41:45.409Z,2.20
2022-09-02T04:44:15.190Z,2.30
2022-09-02T04:46:48.455Z,1.87
2022-09-02T04:49:21.212Z,2.00
2022-09-02T04:51:54.400Z,2.07
2022-09-02T04:57:34.962Z,2.10
2022-09-02T05:00:06.804Z,2.60
2022-09-02T05:02:35.633Z,2.50
2022-09-02T05:05:03.927Z,2.50
2022-09-02T05:07:38.429Z,2.57
2022-09-02T05:10:09.344Z,2.10
2022-09-02T05:12:41.947Z,2.17
2022-09-02T05:15:12.236Z,2.73
2022-09-02T05:17:40.664Z,2.53
2022-09-02T05:20:10.627Z,1.97
2022-09-02T05:22:39.919Z,2.20
2022-09-02T05:25:11.906Z,2.30
2022-09-02T05:27:40.339Z,2.10
2022-09-02T05:30:10.110Z,2.50
2022-09-02T05:32:38.302Z,2.27
2022-09-02T05:35:08.195Z,2.50
2022-09-02T05:37:37.625Z,2.40
2022-09-02T05:40:09.074Z,2.60
2022-09-02T05:42:41.517Z,2.40
2022-09-02T05:45:12.060Z,2.57
2022-09-02T05:47:44.693Z,2.27
2022-09-02T05:50:15.084Z,2.40
2022-09-02T05:52:46.386Z,2.50
2022-09-02T05:55:14.411Z,2.40
2022-09-02T05:57:46.145Z,2.90
2022-09-02T06:00:17.954Z,2.50
2022-09-02T06:02:59.195Z,2.37
2022-09-02T06:05:38.413Z,3.57
2022-09-02T06:08:20.256Z,3.23
2022-09-02T06:10:48.564Z,2.90
2022-09-02T06:13:22.807Z,3.43
2022-09-02T06:15:53.553Z,4.63
2022-09-02T06:18:26.804Z,4.13
2022-09-02T06:20:57.093Z,3.20
2022-09-02T06:23:29.343Z,2.67
2022-09-02T06:26:01.420Z,3.80
2022-09-02T06:28:32.270Z,2.80
2022-09-02T06:31:01.899Z,3.00
2022-09-02T06:33:30.120Z,3.00
2022-09-02T06:35:59.405Z,3.20
2022-09-02T06:38:27.645Z,2.57
2022-09-02T06:40:56.725Z,3.13
2022-09-02T06:43:42.709Z,3.33
2022-09-02T06:46:26.768Z,3.20
2022-09-02T06:49:01.540Z,3.60
2022-09-02T06:51:33.563Z,3.57
2022-09-02T06:55:11.906Z,3.37
2022-09-02T06:57:41.159Z,3.70
2022-09-02T07:00:16.660Z,3.03
2022-09-02T07:03:04.876Z,3.30
2022-09-02T07:05:34.457Z,3.07
2022-09-02T07:08:02.561Z,3.47
2022-09-02T07:10:30.727Z,3.40
2022-09-02T07:13:03.661Z,3.30
2022-09-02T07:15:36.463Z,2.70
2022-09-02T07:18:57.333Z,3.00
2022-09-02T07:21:29.173Z,3.00
2022-09-02T07:23:59.667Z,3.00
2022-09-02T07:26:29.651Z,3.10
2022-09-02T07:28:58.509Z,2.87
2022-09-02T07:31:29.414Z,2.40
2022-09-02T07:33:59.474Z,2.70
2022-09-02T07:36:29.237Z,2.40
2022-09-02T07:38:59.233Z,2.10
2022-09-02T07:41:30.116Z,2.30
2022-09-02T07:43:59.846Z,1.93
2022-09-02T07:46:32.269Z,2.10
2022-09-02T07:49:01.056Z,1.93
2022-09-02T07:51:30.719Z,3.00
2022-09-02T07:54:00.685Z,3.50
2022-09-02T07:56:29.236Z,3.07
2022-09-02T07:58:58.029Z,2.63
2022-09-02T08:01:26.846Z,2.60
2022-09-02T08:03:59.371Z,3.20
2022-09-02T08:06:34.697Z,2.63
2022-09-02T08:09:04.712Z,2.50
2022-09-02T08:11:33.825Z,2.93
2022-09-02T08:14:03.210Z,2.67
2022-09-02T08:16:31.822Z,2.60
2022-09-02T08:19:01.542Z,2.77
2022-09-02T08:21:29.751Z,3.10
2022-09-02T08:23:58.975Z,3.40
2022-09-02T08:26:28.458Z,3.43
2022-09-02T08:28:56.910Z,3.37
2022-09-02T08:31:26.195Z,3.00
2022-09-02T08:33:54.494Z,2.97
2022-09-02T08:36:23.993Z,2.97
2022-09-02T08:38:52.223Z,2.70
2022-09-02T08:41:23.453Z,2.37
2022-09-02T08:43:54.051Z,2.90
2022-09-02T08:46:26.018Z,2.70
2022-09-02T08:48:59.420Z,2.37
2022-09-02T08:51:37.621Z,2.23
2022-09-02T08:54:10.949Z,2.23
2022-09-02T08:56:42.607Z,2.47
2022-09-02T08:59:13.118Z,2.40
2022-09-02T09:01:49.532Z,2.50
2022-09-02T09:04:22.073Z,2.37
2022-09-02T09:07:12.870Z,2.63
2022-09-02T09:09:55.142Z,2.73
2022-09-02T09:12:34.369Z,2.20
2022-09-02T09:15:10.560Z,2.50
2022-09-02T09:17:45.801Z,2.00
2022-09-02T09:20:19.688Z,2.03
2022-09-02T09:22:52.202Z,2.30
2022-09-02T09:25:20.783Z,2.37
2022-09-02T09:27:48.919Z,1.83
2022-09-02T09:30:17.840Z,1.87
2022-09-02T09:32:49.040Z,2.17
2022-09-02T09:35:18.091Z,2.10
2022-09-02T09:37:48.153Z,1.63
2022-09-02T09:40:32.350Z,2.03
2022-09-02T09:43:15.170Z,2.17
2022-09-02T09:45:45.767Z,2.00
2022-09-02T09:48:27.917Z,2.40
2022-09-02T09:51:17.306Z,1.73
2022-09-02T09:53:46.362Z,2.47
2022-09-02T09:56:37.602Z,1.93
2022-09-02T09:59:10.136Z,2.23
2022-09-02T10:01:38.517Z,1.90
2022-09-02T10:04:26.233Z,2.10
2022-09-02T10:06:58.503Z,2.10
2022-09-02T10:09:32.621Z,1.87
2022-09-02T10:12:05.195Z,1.80
2022-09-02T10:14:39.219Z,2.00
2022-09-02T10:17:26.151Z,2.00
2022-09-02T10:20:01.156Z,1.83
2022-09-02T10:23:01.934Z,1.70
2022-09-02T10:25:38.564Z,1.70
2022-09-02T10:28:22.799Z,1.47
2022-09-02T10:30:59.833Z,1.70
2022-09-02T10:33:36.181Z,1.50
2022-09-02T10:36:14.001Z,1.57
2022-09-02T10:38:47.855Z,1.70
2022-09-02T10:41:27.643Z,1.70
2022-09-02T10:44:13.818Z,1.80
2022-09-02T10:46:54.942Z,1.60
2022-09-02T10:49:32.889Z,1.50
2022-09-02T10:52:11.383Z,1.33
2022-09-02T10:54:50.446Z,1.33
2022-09-02T10:57:25.649Z,1.60
2022-09-02T11:00:02.875Z,1.30
2022-09-02T11:02:38.975Z,1.53
2022-09-02T11:05:14.045Z,1.80
2022-09-02T11:07:49.617Z,1.57
2022-09-02T11:10:23.372Z,1.53
2022-09-02T11:12:56.746Z,1.30
2022-09-02T11:15:37.153Z,1.70
2022-09-02T11:18:15.932Z,1.80
2022-09-02T11:20:50.851Z,1.70
2022-09-02T11:23:28.131Z,1.50
2022-09-02T11:26:03.356Z,1.33
2022-09-02T11:28:39.669Z,1.63
2022-09-02T11:31:18.323Z,1.53
2022-09-02T11:33:54.486Z,1.43
2022-09-02T11:36:23.068Z,1.57
2022-09-02T11:38:58.589Z,1.43
2022-09-02T11:41:35.870Z,1.90
2022-09-02T11:44:22.547Z,1.40
2022-09-02T11:47:08.075Z,1.60
2022-09-02T11:50:11.147Z,1.70
2022-09-02T11:52:58.096Z,2.00
2022-09-02T11:55:33.244Z,1.40
2022-09-02T11:58:02.875Z,1.27
2022-09-02T12:00:34.753Z,1.47
2022-09-02T12:03:43.057Z,1.30
2022-09-02T12:06:13.913Z,1.33
2022-09-02T12:09:06.674Z,1.30
2022-09-02T12:11:45.571Z,1.40
2022-09-02T12:15:07.261Z,2.33
2022-09-02T12:17:55.236Z,1.47
2022-09-02T12:21:15.973Z,1.20
2022-09-02T12:24:26.499Z,1.80
2022-09-02T12:27:25.370Z,1.60
2022-09-02T12:29:55.608Z,1.67
2022-09-02T12:33:09.721Z,1.30
2022-09-02T12:35:57.782Z,1.40
2022-09-02T12:38:31.351Z,1.30
2022-09-02T12:41:13.302Z,1.20
2022-09-02T12:43:53.789Z,1.50
2022-09-02T12:46:29.592Z,1.30
2022-09-02T12:49:05.609Z,1.70
2022-09-02T12:51:56.491Z,1.20
2022-09-02T12:54:31.192Z,1.20
2022-09-02T12:57:00.021Z,1.60
2022-09-02T12:59:31.392Z,1.40
2022-09-02T13:02:17.034Z,1.53
2022-09-02T13:04:57.854Z,1.20
2022-09-02T13:07:59.833Z,2.00
2022-09-02T13:11:04.734Z,1.33
2022-09-02T13:14:13.839Z,1.23
2022-09-02T13:16:53.789Z,1.50
2022-09-02T13:19:51.353Z,1.30
2022-09-02T13:23:11.822Z,1.70
2022-09-02T13:26:05.597Z,1.93
2022-09-02T13:29:15.080Z,1.20
2022-09-02T13:31:43.639Z,1.20
2022-09-02T13:34:14.684Z,1.40
2022-09-02T13:36:45.758Z,1.50
2022-09-02T13:39:18.225Z,1.70
2022-09-02T13:41:46.454Z,1.50
2022-09-02T13:44:22.623Z,1.33
2022-09-02T13:46:54.224Z,1.63
2022-09-02T13:49:24.924Z,1.10
2022-09-02T13:51:55.074Z,1.40
2022-09-02T13:54:34.969Z,1.50
2022-09-02T13:57:06.115Z,1.50
2022-09-02T13:59:40.895Z,1.40
2022-09-02T14:02:21.969Z,1.50
2022-09-02T14:04:53.457Z,1.30
2022-09-02T14:07:31.630Z,2.13
2022-09-02T14:10:04.062Z,1.30
2022-09-02T14:12:35.058Z,1.37
2022-09-02T14:15:03.797Z,1.10
2022-09-02T14:17:36.257Z,1.40
2022-09-02T14:20:17.844Z,1.50
2022-09-02T14:22:53.280Z,1.63
2022-09-02T14:25:27.241Z,1.57
2022-09-02T14:27:58.126Z,1.60
2022-09-02T14:30:34.972Z,1.30
2022-09-02T14:33:27.398Z,1.37
2022-09-02T14:36:00.965Z,1.37
2022-09-02T14:38:32.392Z,1.40
2022-09-02T14:41:03.940Z,2.27
2022-09-02T14:43:47.599Z,1.60
2022-09-02T14:46:25.298Z,1.77
2022-09-02T14:49:00.673Z,1.20
2022-09-02T14:51:36.119Z,1.40
2022-09-02T14:54:05.732Z,1.53
2022-09-02T14:56:56.973Z,1.43
2022-09-02T14:59:27.298Z,1.27
2022-09-02T15:01:58.385Z,1.30
2022-09-02T15:04:27.705Z,1.30
2022-09-02T15:06:56.929Z,1.30
2022-09-02T15:09:25.458Z,1.70
2022-09-02T15:12:02.661Z,1.47
2022-09-02T15:14:31.341Z,1.60
2022-09-02T15:16:59.766Z,1.47
2022-09-02T15:19:27.971Z,1.50
2022-09-02T15:21:56.268Z,1.57
2022-09-02T15:24:24.585Z,1.40
2022-09-02T15:26:53.157Z,1.47
2022-09-02T15:29:26.945Z,1.23
2022-09-02T15:31:59.891Z,1.80
2022-09-02T15:34:27.966Z,1.53
2022-09-02T15:36:57.306Z,1.70
2022-09-02T15:39:26.005Z,1.50
2022-09-02T15:41:55.363Z,1.47
2022-09-02T15:44:25.935Z,1.40
2022-09-02T15:46:54.345Z,1.37
2022-09-02T15:49:23.642Z,1.50
2022-09-02T15:51:55.194Z,1.50
2022-09-02T15:54:24.865Z,1.27
2022-09-02T15:56:57.060Z,1.40
2022-09-02T15:59:28.176Z,1.33
2022-09-02T16:01:58.827Z,1.50
2022-09-02T16:04:29.380Z,1.60
2022-09-02T16:06:57.649Z,1.53
2022-09-02T16:09:26.354Z,1.33
2022-09-02T16:11:56.155Z,2.20
2022-09-02T16:14:27.597Z,2.10
2022-09-02T16:16:57.505Z,1.53
2022-09-02T16:19:29.987Z,1.50
2022-09-02T16:21:59.082Z,1.53
2022-09-02T16:24:27.687Z,1.30
2022-09-02T16:26:55.781Z,1.13
2022-09-02T16:29:24.222Z,1.80
2022-09-02T16:32:07.866Z,1.40
2022-09-02T16:34:42.380Z,1.50
2022-09-02T16:37:10.494Z,2.57
2022-09-02T16:39:38.923Z,1.87
2022-09-02T16:42:07.310Z,1.47
2022-09-02T16:44:35.812Z,1.30
2022-09-02T16:47:05.540Z,1.50
2022-09-02T16:49:34.827Z,1.53
2022-09-02T16:52:03.096Z,1.80
2022-09-02T16:54:32.960Z,1.57
2022-09-02T16:57:03.756Z,2.00
2022-09-02T16:59:31.892Z,1.37
2022-09-02T17:02:00.330Z,1.43
2022-09-02T17:04:30.102Z,1.77
2022-09-02T17:06:58.367Z,1.37
2022-09-02T17:09:26.677Z,1.73
2022-09-02T17:11:55.002Z,1.30
2022-09-02T17:14:23.440Z,1.37
2022-09-02T17:16:52.864Z,1.67
2022-09-02T17:19:22.729Z,1.30
2022-09-02T17:21:53.848Z,1.50
2022-09-02T17:24:24.379Z,1.63
2022-09-02T17:26:56.018Z,1.50
2022-09-02T17:29:48.174Z,1.37
2022-09-02T17:32:16.873Z,1.60
2022-09-02T17:34:45.689Z,1.50
2022-09-02T17:37:15.259Z,1.60
2022-09-02T17:39:43.690Z,1.47
2022-09-02T17:42:12.134Z,1.60
2022-09-02T17:44:40.584Z,1.90
2022-09-02T17:47:10.544Z,1.73
2022-09-02T17:49:42.353Z,1.70
2022-09-02T17:52:11.468Z,1.30
2022-09-02T17:54:42.680Z,1.33
2022-09-02T17:57:25.536Z,1.50
2022-09-02T18:00:06.898Z,1.70
2022-09-02T18:03:13.945Z,1.53
2022-09-02T18:05:54.765Z,1.73
2022-09-02T18:08:35.678Z,1.40
2022-09-02T18:11:07.407Z,1.90
2022-09-02T18:13:54.430Z,1.60
2022-09-02T18:16:37.073Z,1.47
2022-09-02T18:19:13.665Z,1.70
2022-09-02T18:22:06.261Z,1.40
2022-09-02T18:25:00.417Z,1.63
2022-09-02T18:27:41.481Z,1.57
2022-09-02T18:30:11.769Z,1.60
2022-09-02T18:32:59.789Z,1.60
2022-09-02T18:35:39.576Z,1.40
2022-09-02T18:38:15.962Z,1.50
2022-09-02T18:40:50.479Z,1.70
2022-09-02T18:43:26.764Z,1.80
2022-09-02T18:46:00.932Z,1.60
2022-09-02T18:48:32.576Z,1.90
2022-09-02T18:51:06.640Z,1.40
2022-09-02T18:53:40.498Z,1.50
2022-09-02T18:56:11.577Z,1.73
2022-09-02T18:58:45.343Z,1.70
2022-09-02T19:01:21.599Z,2.10
2022-09-02T19:03:50.398Z,2.27
2022-09-02T19:06:21.225Z,1.90
2022-09-02T19:08:55.250Z,2.20
2022-09-02T19:11:24.164Z,1.80
2022-09-02T19:13:56.029Z,1.67
2022-09-02T19:16:27.964Z,2.00
2022-09-02T19:18:56.451Z,1.50
2022-09-02T19:21:34.952Z,1.23
2022-09-02T19:24:05.309Z,1.70
2022-09-02T19:26:34.301Z,1.70
2022-09-02T19:29:04.931Z,1.50
2022-09-02T19:31:33.370Z,1.40
2022-09-02T19:34:04.507Z,1.30
2022-09-02T19:36:34.250Z,1.60
2022-09-02T19:39:02.405Z,2.07
2022-09-02T19:41:30.524Z,1.43
2022-09-02T19:44:00.248Z,1.80
2022-09-02T19:47:30.791Z,1.47
2022-09-02T19:49:18.107Z,1.50
2022-09-02T19:51:47.202Z,1.60
2022-09-02T19:54:17.880Z,1.90
2022-09-02T19:56:46.285Z,1.60
2022-09-02T19:59:14.514Z,1.90
2022-09-02T20:01:44.154Z,2.30
2022-09-02T20:04:12.374Z,1.70
2022-09-02T20:06:43.327Z,1.67
2022-09-02T20:09:12.726Z,2.13
2022-09-02T20:11:41.182Z,1.90
2022-09-02T20:14:09.428Z,2.57
2022-09-02T20:16:37.534Z,2.30
2022-09-02T20:19:07.192Z,2.00
2022-09-02T20:21:42.185Z,2.00
2022-09-02T20:24:12.257Z,2.10
2022-09-02T20:26:49.836Z,2.27
2022-09-02T20:29:34.755Z,2.10
2022-09-02T20:32:14.222Z,2.00
2022-09-02T20:34:57.328Z,1.80
2022-09-02T20:37:36.004Z,1.67
2022-09-02T20:40:27.260Z,1.90
2022-09-02T20:43:28.332Z,1.70
2022-09-02T20:45:59.559Z,1.67
2022-09-02T20:48:45.128Z,2.33
2022-09-02T20:51:23.733Z,1.97
2022-09-02T20:54:08.831Z,2.30
2022-09-02T20:56:46.842Z,2.00
2022-09-02T20:59:22.780Z,2.00
2022-09-02T21:01:56.807Z,2.07
2022-09-02T21:04:32.823Z,2.10
2022-09-02T21:07:08.411Z,1.90
2022-09-02T21:09:43.708Z,2.30
2022-09-02T21:12:19.764Z,2.10
2022-09-02T21:14:51.577Z,2.00
2022-09-02T21:17:28.610Z,1.80
2022-09-02T21:20:07.861Z,1.80
2022-09-02T21:22:41.094Z,2.03
2022-09-02T21:25:13.548Z,1.60
2022-09-02T21:27:51.947Z,1.53
2022-09-02T21:30:23.090Z,1.80
2022-09-02T21:32:53.487Z,1.77
2022-09-02T21:35:25.440Z,2.17
2022-09-02T21:38:02.552Z,1.57
2022-09-02T21:40:49.562Z,1.33
2022-09-02T21:43:32.277Z,1.60
2022-09-02T21:46:08.593Z,1.60
2022-09-02T21:48:50.845Z,1.53
2022-09-02T21:51:25.722Z,1.50
2022-09-02T21:54:05.910Z,1.80
2022-09-02T21:56:50.037Z,1.63
2022-09-02T21:59:38.557Z,1.70
2022-09-02T22:02:12.753Z,1.80
2022-09-02T22:04:56.207Z,1.60
2022-09-02T22:07:34.985Z,1.57
2022-09-02T22:10:20.877Z,1.70
2022-09-02T22:12:52.827Z,1.43
2022-09-02T22:15:32.100Z,1.40
2022-09-02T22:18:10.891Z,1.40
2022-09-02T22:20:43.824Z,1.70
2022-09-02T22:23:23.851Z,1.73
2022-09-02T22:25:54.089Z,1.53
2022-09-02T22:28:31.175Z,1.37
2022-09-02T22:31:05.543Z,1.50
2022-09-02T22:33:40.392Z,1.50
2022-09-02T22:36:14.750Z,1.57
2022-09-02T22:38:47.061Z,1.50
2022-09-02T22:41:24.978Z,1.50
2022-09-02T22:43:57.279Z,1.50
2022-09-02T22:46:50.882Z,1.77
2022-09-02T22:49:45.369Z,1.70
2022-09-02T22:52:44.362Z,2.03
2022-09-02T22:55:13.727Z,1.47
2022-09-02T22:57:52.185Z,1.50
2022-09-02T23:00:24.375Z,1.40
2022-09-02T23:03:02.391Z,1.50
2022-09-02T23:05:47.875Z,1.63
2022-09-02T23:08:17.848Z,1.37
2022-09-02T23:10:53.430Z,1.30
2022-09-02T23:13:36.223Z,1.43
2022-09-02T23:16:11.974Z,1.47
2022-09-02T23:18:49.278Z,1.30
2022-09-02T23:21:27.269Z,1.30
2022-09-02T23:24:04.006Z,1.30
2022-09-02T23:26:37.831Z,1.60
2022-09-02T23:29:25.834Z,1.43
2022-09-02T23:32:33.946Z,1.67
2022-09-02T23:35:17.346Z,1.70
2022-09-02T23:38:05.459Z,1.60
2022-09-02T23:40:40.874Z,1.43
2022-09-02T23:43:10.000Z,1.60
2022-09-02T23:45:39.774Z,1.50
2022-09-02T23:48:20.778Z,1.50
2022-09-02T23:51:05.492Z,1.30
2022-09-02T23:53:40.346Z,1.30
2022-09-02T23:56:21.651Z,1.30
2022-09-02T23:59:09.209Z,1.57
